RIPO2: Cimarron River Near Ripley, OK

                                SHEF ID:       RIPO2     Cimarron River near Ripley, OK
STATION TYPE:
Regulating: Stage = 20.00, Flow = 33370

PRECIP ELEVATION STAGE RIV-FLOW AIR-TEMP WIND-DIRWIND-SPEED REL-HUMID VOLTAGE BAT-LOAD
in ft ft cfs F deg mph % volt volt
Ccp-Rev Ccp-Rev Ccp-Rev Ccp-Rev Ccp-Rev Ccp-Rev Ccp-Rev Ccp-Rev Ccp-Rev Ccp-Rev
(America/Chicago)
04/27 00:00 0.00 ---- 8.01 727 167.18 ---- ---- ---- ---- 12.68
04/27 01:00 0.00 ---- 7.96 694 166.82 ---- ---- ---- ---- 12.61
04/27 02:00 0.00 ---- 7.94 682 165.74 ---- ---- ---- ---- 12.57
04/27 03:00 0.00 ---- 7.91 664 165.74 ---- ---- ---- ---- 12.57
04/27 04:00 0.00 ---- 7.92 670 165.92 ---- ---- ---- ---- 12.57
04/27 05:00 0.00 ---- 7.91 664 166.10 ---- ---- ---- ---- 12.54
04/27 06:00 0.00 ---- 7.93 676 167.00 ---- ---- ---- ---- 12.53
04/27 07:00 0.00 ---- 7.84 625 167.36 ---- ---- ---- ---- 12.50
04/27 08:00 0.00 ---- 7.84 625 171.86 ---- ---- ---- ---- 12.50
04/27 09:00 0.00 ---- 7.86 636 179.24 ---- ---- ---- ---- 12.90
04/27 10:00 0.00 ---- 7.89 653 183.02 ---- ---- ---- ---- 13.51
04/27 11:00 0.00 ---- 7.88 647 178.88 ---- ---- ---- ---- 13.49
04/27 12:00 0.00 ---- 7.86 636 178.34 ---- ---- ---- ---- 13.36
04/27 13:00 0.00 ---- 7.83 619 178.34 ---- ---- ---- ---- 13.32
04/27 14:00 0.00 ---- 7.77 586 179.06 ---- ---- ---- ---- 13.29
04/27 15:00 0.00 ---- 7.81 608 181.58 ---- ---- ---- ---- 13.29
04/27 16:00 0.00 ---- 7.77 586 184.10 ---- ---- ---- ---- 13.26
04/27 17:00 0.00 ---- 7.70 549 188.42 ---- ---- ---- ---- 13.23
04/27 18:00 0.00 ---- 7.71 554 192.56 ---- ---- ---- ---- 13.19
04/27 19:00 0.00 ---- 7.73 565 194.90 ---- ---- ---- ---- 13.20
04/27 20:00 0.00 ---- 7.74 570 181.58 ---- ---- ---- ---- 13.21
04/27 21:00 0.00 ---- 7.73 565 168.44 ---- ---- ---- ---- 13.13
04/27 22:00 0.00 ---- 7.64 518 160.88 ---- ---- ---- ---- 12.90
04/27 23:00 0.00 ---- 7.65 523 159.44 ---- ---- ---- ---- 12.76
Data processed at Tue 28Apr2026 04:02 GMT

NOTICE: If you are parsing this page

Please convert to using our Data API. Starting early 2026 we will be migrating to: https://water.usace.army.mil with modern pages rendered in JavaScript. When this migration completes you will no longer be able to scrape this page! CWMSDataAPI (CDA)

Timeseries IDs (TSIDs)

TSIDs used from left to right in the data table
RIPL.Precip-Inc.Total.1Hour.1Hour.Ccp-Rev
RIPL.Stage.Inst.1Hour.0.Ccp-Rev
RIPL.Flow.Inst.1Hour.0.Ccp-Rev
RIPL.Temp-Air.Inst.1Hour.0.Ccp-Rev
RIPL.Dir-Wind.Inst.1Hour.0.Ccp-Rev
RIPL.Speed-Wind.Inst.1Hour.0.Ccp-Rev
RIPL.%-Humidity.Inst.1Hour.0.Ccp-Rev
RIPL.Volt-Battery.Inst.1Hour.0.Ccp-Rev
RIPL.Volt-Battery Load.Inst.1Hour.0.Ccp-Rev

                            

All information presented herein is the property of the government of the United States of America and may be revised or deleted at any time without prior notice. Dissemination of this information without the expressed written consent of the Public Affairs Office, Tulsa District U.S. Army Corps of Engineers is strictly prohibited. These data are gathered electronically and, as presented, have NOT undergone any form of quality control. These data are NOT guaranteed to be valid or correct.